Macajuba, Brazil
Current Conditions -  °F | °C
As of 5:00 PM on Thursday 18 Dec 2014 (Local Time) from SBSV Reporting Station
Broken Clouds Broken Clouds  
Wind Chill: 75°   Ceiling: 1700
Heat Index: 75°   Visibility: 5mi
Dew Point: 70°   Wind: 7mph
Humidity: 83%   Direction: 50°NE
Pressure: 29.85"   Gusts: NA
Location:  12.14°S, 40.36°W
Report Text: SBSV 182000Z 05006KT 8000 FEW010 BKN017 FEW020TCU BKN070 24/21 Q1011
Loading
Personal Weather Stations






























Interactive Weather Map New forecast layout! Learn more

10-Day Weather Forecast

Advertisements
Track Severe Weather on mobile